Belgrade, MN (56312)

6:00 AM CST on December 11, 2016 (GMT -0600)
Paynesville | | Change Station

Elev 1181 ft 45.37 °N, 94.74 °W | Updated 7 minutes ago

Snow
Snow
13 °F
Feels Like 1 °F
N
8
Wind Variable Wind from ENE

Today
High -- | Low -- °F
--% Chance of Precip.
Yesterday
High -- | Low -- °F
Precip. -- in
Pressure 29.97 in
Visibility 1.0 miles
Clouds Overcast 600 ft
Windchill 1 °F
Dew Point 12 °F
Humidity 98%
Rainfall 0.00 in
Snow Depth Not available.
7:50 AM 4:36 PM
Waxing Gibbous, 91% visible
METAR KPEX 111153Z AUTO 06007KT 1SM SN OVC006 M11/M11 A2997 RMK AO2 T11081110 11107 21116
Pressure 29.97 in
Visibility 1.0 miles
Clouds Overcast 600 ft
Windchill 1 °F
Dew Point 12 °F
Humidity 98%
Rainfall 0.00 in
Snow Depth Not available.
7:50 AM 4:36 PM
Waxing Gibbous, 91% visible
METAR KPEX 111153Z AUTO 06007KT 1SM SN OVC006 M11/M11 A2997 RMK AO2 T11081110 11107 21116

10-Day Weather Forecast

Almanac

Astronomy

Dec. 11, 2016 Rise Set
Actual Time
Civil Twilight
Nautical Twilight
Astronomical Twilight
Moon
Length of Visible Light
Length of Day
Tomorrow will be .
, % of the Moon is Illuminated

Today's Extremes

State Highs State Lows

Community

WunderPhotos

Upload Photos

1,956,710 photos uploaded!

WunderBlog® & News

Nearby

Air Quality

  Air Quality AQ Index Pollutant
Not available.

Snow Depth

Station Depth Elevation

Earthquake Activity

City Distance Mag. Time & Date
Minimum magnitude displayed is 2.5.

Coastal Water Temperatures

Place Temperature

Stations

Nearby Weather Stations

Station Location Temp. Windchill Dew Point Humidity Wind Precip. Elev Updated Type
                   

Watches & Warnings

There are currently no watches in effect.